sensor_id;sensor_type;location;lat;lon;timestamp;P1;durP1;ratioP1;P2;durP2;ratioP2
48040;SDS011;33815;48.386;11.738;2022-07-29T00:01:44;2.45;;;2.25;;
48040;SDS011;33815;48.386;11.738;2022-07-29T00:04:09;2.65;;;2.40;;
48040;SDS011;33815;48.386;11.738;2022-07-29T00:06:35;2.97;;;2.67;;
48040;SDS011;33815;48.386;11.738;2022-07-29T00:09:00;7.03;;;2.70;;
48040;SDS011;33815;48.386;11.738;2022-07-29T00:11:25;9.57;;;2.43;;
48040;SDS011;33815;48.386;11.738;2022-07-29T00:13:51;4.15;;;2.90;;
48040;SDS011;33815;48.386;11.738;2022-07-29T00:16:16;3.13;;;2.87;;
48040;SDS011;33815;48.386;11.738;2022-07-29T00:18:41;2.92;;;2.65;;
48040;SDS011;33815;48.386;11.738;2022-07-29T00:21:06;3.30;;;2.57;;
48040;SDS011;33815;48.386;11.738;2022-07-29T00:23:32;4.43;;;2.35;;
48040;SDS011;33815;48.386;11.738;2022-07-29T00:25:57;5.53;;;2.75;;
48040;SDS011;33815;48.386;11.738;2022-07-29T00:28:23;2.73;;;2.50;;
48040;SDS011;33815;48.386;11.738;2022-07-29T00:30:48;2.92;;;2.72;;
48040;SDS011;33815;48.386;11.738;2022-07-29T00:33:13;2.37;;;2.27;;
48040;SDS011;33815;48.386;11.738;2022-07-29T00:35:38;2.80;;;2.40;;
48040;SDS011;33815;48.386;11.738;2022-07-29T00:38:13;4.47;;;2.65;;
48040;SDS011;33815;48.386;11.738;2022-07-29T00:40:40;3.08;;;2.47;;
48040;SDS011;33815;48.386;11.738;2022-07-29T00:43:06;3.30;;;2.75;;
48040;SDS011;33815;48.386;11.738;2022-07-29T00:45:32;3.55;;;2.60;;
48040;SDS011;33815;48.386;11.738;2022-07-29T00:47:57;2.85;;;2.55;;
48040;SDS011;33815;48.386;11.738;2022-07-29T00:50:23;4.03;;;2.38;;
48040;SDS011;33815;48.386;11.738;2022-07-29T00:52:49;2.65;;;2.40;;
48040;SDS011;33815;48.386;11.738;2022-07-29T00:55:15;5.97;;;2.75;;
48040;SDS011;33815;48.386;11.738;2022-07-29T00:57:42;2.45;;;2.25;;
48040;SDS011;33815;48.386;11.738;2022-07-29T01:00:10;3.97;;;2.80;;
48040;SDS011;33815;48.386;11.738;2022-07-29T01:02:46;5.20;;;2.80;;
48040;SDS011;33815;48.386;11.738;2022-07-29T01:05:16;2.83;;;2.55;;
48040;SDS011;33815;48.386;11.738;2022-07-29T01:07:43;5.00;;;3.25;;
48040;SDS011;33815;48.386;11.738;2022-07-29T01:10:10;4.93;;;2.92;;
48040;SDS011;33815;48.386;11.738;2022-07-29T01:12:38;3.88;;;2.75;;
48040;SDS011;33815;48.386;11.738;2022-07-29T01:15:05;3.10;;;2.90;;
48040;SDS011;33815;48.386;11.738;2022-07-29T01:25:44;3.53;;;2.22;;
48040;SDS011;33815;48.386;11.738;2022-07-29T01:31:25;4.13;;;2.10;;
48040;SDS011;33815;48.386;11.738;2022-07-29T01:34:07;2.45;;;2.20;;
48040;SDS011;33815;48.386;11.738;2022-07-29T01:36:37;3.67;;;2.33;;
48040;SDS011;33815;48.386;11.738;2022-07-29T01:39:19;2.63;;;1.95;;
48040;SDS011;33815;48.386;11.738;2022-07-29T01:41:55;2.25;;;2.05;;
48040;SDS011;33815;48.386;11.738;2022-07-29T01:44:32;3.78;;;2.25;;
48040;SDS011;33815;48.386;11.738;2022-07-29T01:47:05;2.58;;;2.00;;
48040;SDS011;33815;48.386;11.738;2022-07-29T01:49:46;2.03;;;1.85;;
48040;SDS011;33815;48.386;11.738;2022-07-29T01:52:19;7.38;;;2.25;;
48040;SDS011;33815;48.386;11.738;2022-07-29T01:54:52;2.80;;;2.05;;
48040;SDS011;33815;48.386;11.738;2022-07-29T01:57:20;2.20;;;2.00;;
48040;SDS011;33815;48.386;11.738;2022-07-29T01:59:51;2.40;;;1.80;;
48040;SDS011;33815;48.386;11.738;2022-07-29T02:02:18;3.08;;;2.25;;
48040;SDS011;33815;48.386;11.738;2022-07-29T02:04:45;2.65;;;2.28;;
48040;SDS011;33815;48.386;11.738;2022-07-29T02:07:13;4.85;;;2.00;;
48040;SDS011;33815;48.386;11.738;2022-07-29T02:09:42;2.38;;;2.03;;
48040;SDS011;33815;48.386;11.738;2022-07-29T02:12:09;2.30;;;2.10;;
48040;SDS011;33815;48.386;11.738;2022-07-29T02:14:37;4.80;;;2.05;;
48040;SDS011;33815;48.386;11.738;2022-07-29T02:17:05;3.85;;;2.30;;
48040;SDS011;33815;48.386;11.738;2022-07-29T02:19:31;3.05;;;2.53;;
48040;SDS011;33815;48.386;11.738;2022-07-29T02:21:58;3.47;;;1.98;;
48040;SDS011;33815;48.386;11.738;2022-07-29T02:24:26;2.05;;;1.95;;
48040;SDS011;33815;48.386;11.738;2022-07-29T02:26:55;4.50;;;2.00;;
48040;SDS011;33815;48.386;11.738;2022-07-29T02:29:23;2.10;;;1.90;;
48040;SDS011;33815;48.386;11.738;2022-07-29T02:31:51;1.83;;;1.70;;
48040;SDS011;33815;48.386;11.738;2022-07-29T02:34:18;3.25;;;2.30;;
48040;SDS011;33815;48.386;11.738;2022-07-29T02:36:45;4.38;;;2.30;;
48040;SDS011;33815;48.386;11.738;2022-07-29T02:39:12;4.40;;;2.33;;
48040;SDS011;33815;48.386;11.738;2022-07-29T02:41:50;2.85;;;2.30;;
48040;SDS011;33815;48.386;11.738;2022-07-29T02:44:19;1.83;;;1.73;;
48040;SDS011;33815;48.386;11.738;2022-07-29T02:46:49;2.58;;;1.90;;
48040;SDS011;33815;48.386;11.738;2022-07-29T02:49:21;1.80;;;1.70;;
48040;SDS011;33815;48.386;11.738;2022-07-29T02:52:31;2.80;;;1.95;;
48040;SDS011;33815;48.386;11.738;2022-07-29T02:55:12;2.72;;;2.22;;
48040;SDS011;33815;48.386;11.738;2022-07-29T02:57:43;2.47;;;2.28;;
48040;SDS011;33815;48.386;11.738;2022-07-29T03:00:11;1.80;;;1.70;;
48040;SDS011;33815;48.386;11.738;2022-07-29T03:02:38;4.35;;;1.77;;
48040;SDS011;33815;48.386;11.738;2022-07-29T03:05:08;2.80;;;2.08;;
48040;SDS011;33815;48.386;11.738;2022-07-29T03:07:35;3.30;;;2.03;;
48040;SDS011;33815;48.386;11.738;2022-07-29T03:10:04;3.22;;;1.88;;
48040;SDS011;33815;48.386;11.738;2022-07-29T03:12:31;2.13;;;1.80;;
48040;SDS011;33815;48.386;11.738;2022-07-29T03:14:57;2.92;;;2.40;;
48040;SDS011;33815;48.386;11.738;2022-07-29T03:17:24;3.13;;;1.92;;
48040;SDS011;33815;48.386;11.738;2022-07-29T03:19:50;1.92;;;1.60;;
48040;SDS011;33815;48.386;11.738;2022-07-29T03:22:15;2.08;;;1.95;;
48040;SDS011;33815;48.386;11.738;2022-07-29T03:24:41;2.65;;;1.92;;
48040;SDS011;33815;48.386;11.738;2022-07-29T03:27:06;2.13;;;2.00;;
48040;SDS011;33815;48.386;11.738;2022-07-29T03:29:32;2.40;;;1.80;;
48040;SDS011;33815;48.386;11.738;2022-07-29T03:31:57;3.25;;;2.20;;
48040;SDS011;33815;48.386;11.738;2022-07-29T03:34:22;2.63;;;2.30;;
48040;SDS011;33815;48.386;11.738;2022-07-29T03:36:48;2.10;;;1.95;;
48040;SDS011;33815;48.386;11.738;2022-07-29T03:39:18;2.10;;;1.90;;
48040;SDS011;33815;48.386;11.738;2022-07-29T03:41:47;2.65;;;1.92;;
48040;SDS011;33815;48.386;11.738;2022-07-29T03:44:15;3.55;;;2.30;;
48040;SDS011;33815;48.386;11.738;2022-07-29T03:46:42;3.15;;;2.40;;
48040;SDS011;33815;48.386;11.738;2022-07-29T03:49:09;4.70;;;2.45;;
48040;SDS011;33815;48.386;11.738;2022-07-29T03:51:36;2.92;;;2.33;;
48040;SDS011;33815;48.386;11.738;2022-07-29T03:54:03;4.13;;;2.00;;
48040;SDS011;33815;48.386;11.738;2022-07-29T03:56:29;3.05;;;2.40;;
48040;SDS011;33815;48.386;11.738;2022-07-29T03:58:59;4.10;;;2.42;;
48040;SDS011;33815;48.386;11.738;2022-07-29T04:01:26;2.75;;;2.45;;
48040;SDS011;33815;48.386;11.738;2022-07-29T04:03:52;2.70;;;2.47;;
48040;SDS011;33815;48.386;11.738;2022-07-29T04:06:18;3.63;;;2.40;;
48040;SDS011;33815;48.386;11.738;2022-07-29T04:08:43;2.67;;;2.27;;
48040;SDS011;33815;48.386;11.738;2022-07-29T04:11:08;2.50;;;2.30;;
48040;SDS011;33815;48.386;11.738;2022-07-29T04:13:34;5.30;;;2.13;;
48040;SDS011;33815;48.386;11.738;2022-07-29T04:15:59;5.97;;;2.20;;
48040;SDS011;33815;48.386;11.738;2022-07-29T04:18:25;2.00;;;1.90;;
48040;SDS011;33815;48.386;11.738;2022-07-29T04:20:51;4.90;;;2.30;;
48040;SDS011;33815;48.386;11.738;2022-07-29T04:23:17;9.57;;;2.47;;
48040;SDS011;33815;48.386;11.738;2022-07-29T04:25:42;2.50;;;2.30;;
48040;SDS011;33815;48.386;11.738;2022-07-29T04:28:08;3.42;;;2.83;;
48040;SDS011;33815;48.386;11.738;2022-07-29T04:30:34;4.20;;;2.30;;
48040;SDS011;33815;48.386;11.738;2022-07-29T04:33:02;2.85;;;2.65;;
48040;SDS011;33815;48.386;11.738;2022-07-29T04:35:29;2.72;;;2.47;;
48040;SDS011;33815;48.386;11.738;2022-07-29T04:37:55;2.38;;;2.17;;
48040;SDS011;33815;48.386;11.738;2022-07-29T04:40:21;3.95;;;2.45;;
48040;SDS011;33815;48.386;11.738;2022-07-29T04:42:47;2.55;;;2.35;;
48040;SDS011;33815;48.386;11.738;2022-07-29T04:45:12;2.63;;;2.35;;
48040;SDS011;33815;48.386;11.738;2022-07-29T04:47:37;10.25;;;2.58;;
48040;SDS011;33815;48.386;11.738;2022-07-29T04:50:03;3.15;;;2.63;;
48040;SDS011;33815;48.386;11.738;2022-07-29T04:52:30;5.28;;;2.60;;
48040;SDS011;33815;48.386;11.738;2022-07-29T04:54:55;5.30;;;2.75;;
48040;SDS011;33815;48.386;11.738;2022-07-29T04:57:20;3.05;;;2.83;;
48040;SDS011;33815;48.386;11.738;2022-07-29T04:59:46;3.80;;;2.70;;
48040;SDS011;33815;48.386;11.738;2022-07-29T05:02:11;2.77;;;2.57;;
48040;SDS011;33815;48.386;11.738;2022-07-29T05:04:36;4.30;;;2.40;;
48040;SDS011;33815;48.386;11.738;2022-07-29T05:07:01;3.20;;;2.90;;
48040;SDS011;33815;48.386;11.738;2022-07-29T05:09:27;2.78;;;2.58;;
48040;SDS011;33815;48.386;11.738;2022-07-29T05:11:52;3.13;;;2.67;;
48040;SDS011;33815;48.386;11.738;2022-07-29T05:14:17;2.70;;;2.50;;
48040;SDS011;33815;48.386;11.738;2022-07-29T05:16:43;2.97;;;2.78;;
48040;SDS011;33815;48.386;11.738;2022-07-29T05:19:08;3.38;;;2.95;;
48040;SDS011;33815;48.386;11.738;2022-07-29T05:21:33;3.47;;;2.50;;
48040;SDS011;33815;48.386;11.738;2022-07-29T05:23:59;4.10;;;2.83;;
48040;SDS011;33815;48.386;11.738;2022-07-29T05:26:24;2.70;;;2.50;;
48040;SDS011;33815;48.386;11.738;2022-07-29T05:28:49;3.53;;;3.00;;
48040;SDS011;33815;48.386;11.738;2022-07-29T05:31:14;4.13;;;2.27;;
48040;SDS011;33815;48.386;11.738;2022-07-29T05:33:40;4.82;;;2.90;;
48040;SDS011;33815;48.386;11.738;2022-07-29T05:36:06;2.95;;;2.67;;
48040;SDS011;33815;48.386;11.738;2022-07-29T05:38:32;5.13;;;3.17;;
48040;SDS011;33815;48.386;11.738;2022-07-29T05:40:58;4.32;;;2.88;;
48040;SDS011;33815;48.386;11.738;2022-07-29T05:43:27;2.83;;;2.58;;
48040;SDS011;33815;48.386;11.738;2022-07-29T05:45:52;3.20;;;2.63;;
48040;SDS011;33815;48.386;11.738;2022-07-29T05:48:18;3.47;;;3.10;;
48040;SDS011;33815;48.386;11.738;2022-07-29T05:50:43;3.15;;;2.60;;
48040;SDS011;33815;48.386;11.738;2022-07-29T05:53:08;4.20;;;2.37;;
48040;SDS011;33815;48.386;11.738;2022-07-29T05:55:33;3.30;;;2.80;;
48040;SDS011;33815;48.386;11.738;2022-07-29T05:57:59;2.50;;;2.30;;
48040;SDS011;33815;48.386;11.738;2022-07-29T06:00:24;2.42;;;2.13;;
48040;SDS011;33815;48.386;11.738;2022-07-29T06:02:49;3.72;;;2.45;;
48040;SDS011;33815;48.386;11.738;2022-07-29T06:05:15;4.80;;;2.33;;
48040;SDS011;33815;48.386;11.738;2022-07-29T06:07:40;3.97;;;2.50;;
48040;SDS011;33815;48.386;11.738;2022-07-29T06:10:06;2.50;;;2.00;;
48040;SDS011;33815;48.386;11.738;2022-07-29T06:12:31;3.00;;;2.35;;
48040;SDS011;33815;48.386;11.738;2022-07-29T06:14:57;2.80;;;2.17;;
48040;SDS011;33815;48.386;11.738;2022-07-29T06:17:22;5.07;;;2.50;;
48040;SDS011;33815;48.386;11.738;2022-07-29T06:19:48;1.95;;;1.85;;
48040;SDS011;33815;48.386;11.738;2022-07-29T06:22:14;8.45;;;2.30;;
48040;SDS011;33815;48.386;11.738;2022-07-29T06:24:41;3.90;;;1.90;;
48040;SDS011;33815;48.386;11.738;2022-07-29T06:27:08;3.28;;;1.65;;
48040;SDS011;33815;48.386;11.738;2022-07-29T06:29:37;3.20;;;1.98;;
48040;SDS011;33815;48.386;11.738;2022-07-29T06:32:03;1.80;;;1.70;;
48040;SDS011;33815;48.386;11.738;2022-07-29T06:34:28;2.35;;;1.70;;
48040;SDS011;33815;48.386;11.738;2022-07-29T06:36:54;4.43;;;2.07;;
48040;SDS011;33815;48.386;11.738;2022-07-29T06:39:19;2.92;;;2.00;;
48040;SDS011;33815;48.386;11.738;2022-07-29T06:41:48;2.58;;;1.92;;
48040;SDS011;33815;48.386;11.738;2022-07-29T06:44:15;2.10;;;1.88;;
48040;SDS011;33815;48.386;11.738;2022-07-29T06:46:41;2.90;;;1.85;;
48040;SDS011;33815;48.386;11.738;2022-07-29T06:49:07;2.55;;;1.85;;
48040;SDS011;33815;48.386;11.738;2022-07-29T06:51:32;1.80;;;1.70;;
48040;SDS011;33815;48.386;11.738;2022-07-29T06:53:58;2.47;;;1.90;;
48040;SDS011;33815;48.386;11.738;2022-07-29T06:56:23;2.70;;;1.23;;
48040;SDS011;33815;48.386;11.738;2022-07-29T06:58:48;2.25;;;1.48;;
48040;SDS011;33815;48.386;11.738;2022-07-29T07:01:14;1.48;;;1.38;;
48040;SDS011;33815;48.386;11.738;2022-07-29T07:03:39;1.70;;;1.60;;
48040;SDS011;33815;48.386;11.738;2022-07-29T07:06:05;2.78;;;1.55;;
48040;SDS011;33815;48.386;11.738;2022-07-29T07:08:30;2.80;;;1.83;;
48040;SDS011;33815;48.386;11.738;2022-07-29T07:10:55;1.98;;;1.58;;
48040;SDS011;33815;48.386;11.738;2022-07-29T07:13:21;2.10;;;1.73;;
48040;SDS011;33815;48.386;11.738;2022-07-29T07:15:47;2.03;;;1.60;;
48040;SDS011;33815;48.386;11.738;2022-07-29T07:18:13;1.48;;;1.38;;
48040;SDS011;33815;48.386;11.738;2022-07-29T07:20:39;1.52;;;1.42;;
48040;SDS011;33815;48.386;11.738;2022-07-29T07:23:05;5.78;;;1.90;;
48040;SDS011;33815;48.386;11.738;2022-07-29T07:25:31;1.67;;;1.50;;
48040;SDS011;33815;48.386;11.738;2022-07-29T07:27:56;1.38;;;1.25;;
48040;SDS011;33815;48.386;11.738;2022-07-29T07:30:22;2.85;;;1.70;;
48040;SDS011;33815;48.386;11.738;2022-07-29T07:32:47;2.20;;;1.65;;
48040;SDS011;33815;48.386;11.738;2022-07-29T07:35:13;2.03;;;1.58;;
48040;SDS011;33815;48.386;11.738;2022-07-29T07:37:39;1.60;;;1.50;;
48040;SDS011;33815;48.386;11.738;2022-07-29T07:40:08;1.42;;;1.23;;
48040;SDS011;33815;48.386;11.738;2022-07-29T07:42:35;1.73;;;1.58;;
48040;SDS011;33815;48.386;11.738;2022-07-29T07:45:00;2.83;;;1.53;;
48040;SDS011;33815;48.386;11.738;2022-07-29T07:47:25;4.75;;;1.33;;
48040;SDS011;33815;48.386;11.738;2022-07-29T07:49:51;1.42;;;1.30;;
48040;SDS011;33815;48.386;11.738;2022-07-29T07:52:17;1.27;;;1.17;;
48040;SDS011;33815;48.386;11.738;2022-07-29T07:54:44;3.90;;;1.60;;
48040;SDS011;33815;48.386;11.738;2022-07-29T07:57:09;2.72;;;1.38;;
48040;SDS011;33815;48.386;11.738;2022-07-29T07:59:36;1.23;;;1.13;;
48040;SDS011;33815;48.386;11.738;2022-07-29T08:02:01;1.52;;;1.30;;
48040;SDS011;33815;48.386;11.738;2022-07-29T08:04:27;1.75;;;1.60;;
48040;SDS011;33815;48.386;11.738;2022-07-29T08:06:52;3.00;;;1.40;;
48040;SDS011;33815;48.386;11.738;2022-07-29T08:09:19;1.48;;;1.17;;
48040;SDS011;33815;48.386;11.738;2022-07-29T08:11:45;2.75;;;1.20;;
48040;SDS011;33815;48.386;11.738;2022-07-29T08:14:10;1.67;;;1.40;;
48040;SDS011;33815;48.386;11.738;2022-07-29T08:16:35;3.23;;;1.40;;
48040;SDS011;33815;48.386;11.738;2022-07-29T08:19:01;1.13;;;1.00;;
48040;SDS011;33815;48.386;11.738;2022-07-29T08:21:26;4.33;;;1.43;;
48040;SDS011;33815;48.386;11.738;2022-07-29T08:23:51;4.10;;;1.10;;
48040;SDS011;33815;48.386;11.738;2022-07-29T08:26:40;2.88;;;1.10;;
48040;SDS011;33815;48.386;11.738;2022-07-29T08:29:06;1.60;;;1.23;;
48040;SDS011;33815;48.386;11.738;2022-07-29T08:31:31;4.50;;;1.20;;
48040;SDS011;33815;48.386;11.738;2022-07-29T08:33:56;2.97;;;1.13;;
48040;SDS011;33815;48.386;11.738;2022-07-29T08:36:24;5.50;;;1.30;;
48040;SDS011;33815;48.386;11.738;2022-07-29T08:38:50;1.27;;;1.27;;
48040;SDS011;33815;48.386;11.738;2022-07-29T08:41:15;2.38;;;1.20;;
48040;SDS011;33815;48.386;11.738;2022-07-29T08:43:43;1.50;;;1.20;;
48040;SDS011;33815;48.386;11.738;2022-07-29T08:46:09;2.90;;;1.10;;
48040;SDS011;33815;48.386;11.738;2022-07-29T08:48:34;3.67;;;1.13;;
48040;SDS011;33815;48.386;11.738;2022-07-29T08:51:01;3.42;;;1.58;;
48040;SDS011;33815;48.386;11.738;2022-07-29T08:53:26;3.58;;;1.20;;
48040;SDS011;33815;48.386;11.738;2022-07-29T08:55:53;1.95;;;1.00;;
48040;SDS011;33815;48.386;11.738;2022-07-29T08:58:19;3.10;;;1.10;;
48040;SDS011;33815;48.386;11.738;2022-07-29T09:00:46;1.23;;;1.13;;
48040;SDS011;33815;48.386;11.738;2022-07-29T09:03:17;3.53;;;1.33;;
48040;SDS011;33815;48.386;11.738;2022-07-29T09:05:44;3.78;;;1.00;;
48040;SDS011;33815;48.386;11.738;2022-07-29T09:08:11;4.97;;;1.17;;
48040;SDS011;33815;48.386;11.738;2022-07-29T09:10:37;2.42;;;1.13;;
48040;SDS011;33815;48.386;11.738;2022-07-29T09:13:03;3.38;;;1.20;;
48040;SDS011;33815;48.386;11.738;2022-07-29T09:15:28;4.07;;;1.57;;
48040;SDS011;33815;48.386;11.738;2022-07-29T09:17:54;4.30;;;1.50;;
48040;SDS011;33815;48.386;11.738;2022-07-29T09:20:21;3.45;;;2.42;;
48040;SDS011;33815;48.386;11.738;2022-07-29T09:22:48;2.05;;;1.25;;
48040;SDS011;33815;48.386;11.738;2022-07-29T09:25:14;4.50;;;1.42;;
48040;SDS011;33815;48.386;11.738;2022-07-29T09:28:05;1.63;;;1.20;;
48040;SDS011;33815;48.386;11.738;2022-07-29T09:30:34;2.72;;;2.47;;
48040;SDS011;33815;48.386;11.738;2022-07-29T09:33:01;2.40;;;1.50;;
48040;SDS011;33815;48.386;11.738;2022-07-29T09:35:28;2.55;;;1.13;;
48040;SDS011;33815;48.386;11.738;2022-07-29T09:37:54;4.25;;;1.05;;
48040;SDS011;33815;48.386;11.738;2022-07-29T09:40:24;5.68;;;4.30;;
48040;SDS011;33815;48.386;11.738;2022-07-29T09:42:51;3.72;;;1.45;;
48040;SDS011;33815;48.386;11.738;2022-07-29T09:45:33;3.10;;;1.05;;
48040;SDS011;33815;48.386;11.738;2022-07-29T09:47:59;2.17;;;1.40;;
48040;SDS011;33815;48.386;11.738;2022-07-29T09:50:37;1.42;;;1.23;;
48040;SDS011;33815;48.386;11.738;2022-07-29T09:53:04;2.03;;;1.50;;
48040;SDS011;33815;48.386;11.738;2022-07-29T09:55:30;2.15;;;1.25;;
48040;SDS011;33815;48.386;11.738;2022-07-29T09:58:14;2.57;;;1.40;;
48040;SDS011;33815;48.386;11.738;2022-07-29T10:00:41;2.08;;;1.45;;
48040;SDS011;33815;48.386;11.738;2022-07-29T10:03:08;2.47;;;1.58;;
48040;SDS011;33815;48.386;11.738;2022-07-29T10:05:33;1.75;;;1.63;;
48040;SDS011;33815;48.386;11.738;2022-07-29T10:07:59;1.40;;;1.30;;
48040;SDS011;33815;48.386;11.738;2022-07-29T10:10:28;1.30;;;1.10;;
48040;SDS011;33815;48.386;11.738;2022-07-29T10:12:59;4.20;;;2.00;;
48040;SDS011;33815;48.386;11.738;2022-07-29T10:15:27;2.70;;;2.50;;
48040;SDS011;33815;48.386;11.738;2022-07-29T10:17:57;1.50;;;1.40;;
48040;SDS011;33815;48.386;11.738;2022-07-29T10:20:23;2.88;;;1.17;;
48040;SDS011;33815;48.386;11.738;2022-07-29T10:22:50;2.15;;;1.25;;
48040;SDS011;33815;48.386;11.738;2022-07-29T10:25:16;2.25;;;1.77;;
48040;SDS011;33815;48.386;11.738;2022-07-29T10:27:43;1.90;;;1.40;;
48040;SDS011;33815;48.386;11.738;2022-07-29T10:30:09;1.70;;;1.45;;
48040;SDS011;33815;48.386;11.738;2022-07-29T10:32:42;1.67;;;1.40;;
48040;SDS011;33815;48.386;11.738;2022-07-29T10:43:51;1.45;;;1.35;;
48040;SDS011;33815;48.386;11.738;2022-07-29T10:46:19;1.58;;;1.30;;
48040;SDS011;33815;48.386;11.738;2022-07-29T10:51:56;2.22;;;1.90;;
48040;SDS011;33815;48.386;11.738;2022-07-29T10:54:42;4.50;;;3.20;;
48040;SDS011;33815;48.386;11.738;2022-07-29T10:59:42;1.92;;;1.70;;
48040;SDS011;33815;48.386;11.738;2022-07-29T11:05:02;2.00;;;1.75;;
48040;SDS011;33815;48.386;11.738;2022-07-29T11:07:30;2.30;;;1.55;;
48040;SDS011;33815;48.386;11.738;2022-07-29T11:15:08;3.40;;;2.25;;
48040;SDS011;33815;48.386;11.738;2022-07-29T11:31:19;1.83;;;1.30;;
48040;SDS011;33815;48.386;11.738;2022-07-29T11:34:19;7.13;;;2.13;;
48040;SDS011;33815;48.386;11.738;2022-07-29T11:39:38;2.45;;;1.83;;
48040;SDS011;33815;48.386;11.738;2022-07-29T11:45:02;2.35;;;1.77;;
48040;SDS011;33815;48.386;11.738;2022-07-29T11:47:34;4.00;;;2.00;;
48040;SDS011;33815;48.386;11.738;2022-07-29T11:50:06;4.00;;;1.60;;
48040;SDS011;33815;48.386;11.738;2022-07-29T11:52:44;3.03;;;2.10;;
48040;SDS011;33815;48.386;11.738;2022-07-29T11:55:12;1.95;;;1.80;;
48040;SDS011;33815;48.386;11.738;2022-07-29T11:57:53;2.63;;;1.90;;
48040;SDS011;33815;48.386;11.738;2022-07-29T12:00:30;1.92;;;1.83;;
48040;SDS011;33815;48.386;11.738;2022-07-29T12:03:06;3.90;;;2.00;;
48040;SDS011;33815;48.386;11.738;2022-07-29T12:05:40;4.13;;;2.15;;
48040;SDS011;33815;48.386;11.738;2022-07-29T12:08:07;2.50;;;1.95;;
48040;SDS011;33815;48.386;11.738;2022-07-29T12:10:38;3.05;;;1.67;;
48040;SDS011;33815;48.386;11.738;2022-07-29T12:13:04;3.67;;;2.28;;
48040;SDS011;33815;48.386;11.738;2022-07-29T12:15:29;1.92;;;1.40;;
48040;SDS011;33815;48.386;11.738;2022-07-29T12:17:54;1.83;;;1.55;;
48040;SDS011;33815;48.386;11.738;2022-07-29T12:20:24;4.03;;;1.52;;
48040;SDS011;33815;48.386;11.738;2022-07-29T12:22:54;2.97;;;1.80;;
48040;SDS011;33815;48.386;11.738;2022-07-29T12:25:21;6.95;;;1.50;;
48040;SDS011;33815;48.386;11.738;2022-07-29T12:27:56;2.97;;;1.30;;
48040;SDS011;33815;48.386;11.738;2022-07-29T12:30:22;3.20;;;1.70;;
48040;SDS011;33815;48.386;11.738;2022-07-29T12:32:58;4.05;;;1.50;;
48040;SDS011;33815;48.386;11.738;2022-07-29T12:35:24;3.40;;;1.85;;
48040;SDS011;33815;48.386;11.738;2022-07-29T12:37:49;3.08;;;1.77;;
48040;SDS011;33815;48.386;11.738;2022-07-29T12:40:17;6.63;;;1.73;;
48040;SDS011;33815;48.386;11.738;2022-07-29T12:43:04;4.32;;;1.48;;
48040;SDS011;33815;48.386;11.738;2022-07-29T12:45:37;6.80;;;1.48;;
48040;SDS011;33815;48.386;11.738;2022-07-29T12:48:04;2.85;;;1.20;;
48040;SDS011;33815;48.386;11.738;2022-07-29T12:50:30;2.63;;;1.52;;
48040;SDS011;33815;48.386;11.738;2022-07-29T12:53:07;6.85;;;1.48;;
48040;SDS011;33815;48.386;11.738;2022-07-29T12:55:41;2.75;;;1.60;;
48040;SDS011;33815;48.386;11.738;2022-07-29T12:58:09;2.17;;;1.00;;
48040;SDS011;33815;48.386;11.738;2022-07-29T13:00:34;4.32;;;1.65;;
48040;SDS011;33815;48.386;11.738;2022-07-29T13:02:59;3.67;;;1.52;;
48040;SDS011;33815;48.386;11.738;2022-07-29T13:05:39;2.17;;;1.40;;
48040;SDS011;33815;48.386;11.738;2022-07-29T13:08:12;5.72;;;1.98;;
48040;SDS011;33815;48.386;11.738;2022-07-29T13:10:39;2.65;;;1.35;;
48040;SDS011;33815;48.386;11.738;2022-07-29T13:13:11;2.88;;;1.58;;
48040;SDS011;33815;48.386;11.738;2022-07-29T13:15:38;2.83;;;1.75;;
48040;SDS011;33815;48.386;11.738;2022-07-29T13:18:25;2.45;;;1.50;;
48040;SDS011;33815;48.386;11.738;2022-07-29T13:20:55;2.75;;;2.03;;
48040;SDS011;33815;48.386;11.738;2022-07-29T13:23:21;2.10;;;1.48;;
48040;SDS011;33815;48.386;11.738;2022-07-29T13:25:47;4.65;;;1.10;;
48040;SDS011;33815;48.386;11.738;2022-07-29T13:28:12;2.22;;;1.27;;
48040;SDS011;33815;48.386;11.738;2022-07-29T13:30:39;2.47;;;1.40;;
48040;SDS011;33815;48.386;11.738;2022-07-29T13:33:05;3.22;;;1.38;;
48040;SDS011;33815;48.386;11.738;2022-07-29T13:35:30;2.53;;;1.23;;
48040;SDS011;33815;48.386;11.738;2022-07-29T13:37:55;1.50;;;1.38;;
48040;SDS011;33815;48.386;11.738;2022-07-29T13:40:20;1.70;;;1.60;;
48040;SDS011;33815;48.386;11.738;2022-07-29T13:42:47;2.30;;;1.20;;
48040;SDS011;33815;48.386;11.738;2022-07-29T13:45:12;3.38;;;1.77;;
48040;SDS011;33815;48.386;11.738;2022-07-29T13:47:37;1.60;;;1.50;;
48040;SDS011;33815;48.386;11.738;2022-07-29T13:50:03;8.57;;;1.65;;
48040;SDS011;33815;48.386;11.738;2022-07-29T13:52:30;3.42;;;1.58;;
48040;SDS011;33815;48.386;11.738;2022-07-29T13:54:56;1.45;;;1.35;;
48040;SDS011;33815;48.386;11.738;2022-07-29T13:57:21;1.83;;;1.70;;
48040;SDS011;33815;48.386;11.738;2022-07-29T13:59:46;3.13;;;1.70;;
48040;SDS011;33815;48.386;11.738;2022-07-29T14:02:12;1.80;;;1.37;;
48040;SDS011;33815;48.386;11.738;2022-07-29T14:04:37;6.53;;;1.83;;
48040;SDS011;33815;48.386;11.738;2022-07-29T14:07:02;2.00;;;1.58;;
48040;SDS011;33815;48.386;11.738;2022-07-29T14:09:28;1.75;;;1.27;;
48040;SDS011;33815;48.386;11.738;2022-07-29T14:11:53;3.03;;;1.40;;
48040;SDS011;33815;48.386;11.738;2022-07-29T14:14:19;4.68;;;3.10;;
48040;SDS011;33815;48.386;11.738;2022-07-29T14:16:44;2.88;;;1.65;;
48040;SDS011;33815;48.386;11.738;2022-07-29T14:19:09;5.50;;;1.88;;
48040;SDS011;33815;48.386;11.738;2022-07-29T14:21:35;8.52;;;1.67;;
48040;SDS011;33815;48.386;11.738;2022-07-29T14:24:01;4.47;;;1.60;;
48040;SDS011;33815;48.386;11.738;2022-07-29T14:26:26;6.17;;;2.33;;
48040;SDS011;33815;48.386;11.738;2022-07-29T14:28:52;3.90;;;1.57;;
48040;SDS011;33815;48.386;11.738;2022-07-29T14:31:17;1.77;;;1.45;;
48040;SDS011;33815;48.386;11.738;2022-07-29T14:33:42;5.00;;;1.30;;
48040;SDS011;33815;48.386;11.738;2022-07-29T14:36:08;3.83;;;1.58;;
48040;SDS011;33815;48.386;11.738;2022-07-29T14:38:34;3.47;;;1.55;;
48040;SDS011;33815;48.386;11.738;2022-07-29T14:41:00;4.32;;;1.63;;
48040;SDS011;33815;48.386;11.738;2022-07-29T14:43:25;2.88;;;1.52;;
48040;SDS011;33815;48.386;11.738;2022-07-29T14:45:50;6.38;;;2.05;;
48040;SDS011;33815;48.386;11.738;2022-07-29T14:48:16;6.47;;;1.88;;
48040;SDS011;33815;48.386;11.738;2022-07-29T14:50:41;3.53;;;1.60;;
48040;SDS011;33815;48.386;11.738;2022-07-29T14:53:07;5.23;;;1.80;;
48040;SDS011;33815;48.386;11.738;2022-07-29T14:55:32;2.75;;;1.80;;
48040;SDS011;33815;48.386;11.738;2022-07-29T14:57:57;1.90;;;1.70;;
48040;SDS011;33815;48.386;11.738;2022-07-29T15:00:24;3.90;;;1.70;;
48040;SDS011;33815;48.386;11.738;2022-07-29T15:02:50;14.75;;;1.85;;
48040;SDS011;33815;48.386;11.738;2022-07-29T15:05:15;4.10;;;1.60;;
48040;SDS011;33815;48.386;11.738;2022-07-29T15:07:40;4.35;;;1.80;;
48040;SDS011;33815;48.386;11.738;2022-07-29T15:10:06;3.07;;;1.70;;
48040;SDS011;33815;48.386;11.738;2022-07-29T15:12:31;3.33;;;1.73;;
48040;SDS011;33815;48.386;11.738;2022-07-29T15:14:57;2.83;;;1.73;;
48040;SDS011;33815;48.386;11.738;2022-07-29T15:17:22;4.43;;;1.93;;
48040;SDS011;33815;48.386;11.738;2022-07-29T15:19:47;3.22;;;1.63;;
48040;SDS011;33815;48.386;11.738;2022-07-29T15:22:12;1.60;;;1.50;;
48040;SDS011;33815;48.386;11.738;2022-07-29T15:24:38;3.43;;;1.47;;
48040;SDS011;33815;48.386;11.738;2022-07-29T15:27:03;7.88;;;1.67;;
48040;SDS011;33815;48.386;11.738;2022-07-29T15:29:28;2.20;;;1.95;;